Open Full Screen Window  High Contrast Mode
Wind Gusting 19 knots
16
December 19, 2014 5:25 PM CST
Present Weather: Mist
Weather Information
Wind Direction
  180 °
Wind Speed
  16 kt (18 mph)
Wind Gust
  19 kt (22 mph)
Altimeter
30.05 in
Visibility
2 1/2 SM
Temperature
-03° C
27° F
Dewpoint
-03° C
27° F
Humidity
100%
1hr Rain Fall
00.00 in.
24hr Rain Fall
00.00 in.
Sky Condition
Overcast @ 300 ft
LIFR

METAR KMDS 192325Z AUTO 18016G19KT 2 1/2SM BR OVC003 M03/M03 A3005 RMK AO2

*Background is not an actual portrayal of the airport.